Time;durP1;ratioP1;P1;durP2;ratioP2;P2;SDS_P1;SDS_P2;PMS_P1;PMS_P2;Temp;Humidity;BMP_temperature;BMP_pressure;BME280_temperature;BME280_humidity;BME280_pressure;Samples;Min_cycle;Max_cycle;Signal;HPM_P1;HPM_P2
2023/04/24 00:02:25;;;;;;;0.73;0.63;;;;;;;12.79;75.58;97287.47;7383851;19;19943;-75
2023/04/24 00:04:52;;;;;;;2.28;1.05;;;;;;;12.80;75.60;97286.47;7381218;19;19952;-75
2023/04/24 00:07:20;;;;;;;1.42;1.30;;;;;;;12.77;75.87;97283.38;7381893;19;19919;-74
2023/04/24 00:09:47;;;;;;;0.90;0.75;;;;;;;12.85;75.70;97283.22;7386691;19;19914;-75
2023/04/24 00:12:14;;;;;;;2.55;0.57;;;;;;;12.89;75.26;97279.97;7384209;19;19922;-74
2023/04/24 00:14:41;;;;;;;0.80;0.60;;;;;;;12.87;75.51;97289.97;7389086;19;19923;-74
2023/04/24 00:17:07;;;;;;;0.88;0.75;;;;;;;12.92;75.63;97294.69;7386890;19;20648;-74
2023/04/24 00:19:34;;;;;;;1.95;0.90;;;;;;;12.92;75.51;97289.38;7378297;19;19930;-74
2023/04/24 00:22:02;;;;;;;1.17;0.73;;;;;;;12.89;75.25;97295.91;7388667;19;19922;-74
2023/04/24 00:24:29;;;;;;;1.30;0.85;;;;;;;12.93;75.43;97285.72;7379352;19;20342;-74
2023/04/24 00:26:55;;;;;;;1.65;1.00;;;;;;;12.98;75.14;97293.09;7386701;19;19927;-75
2023/04/24 00:29:22;;;;;;;3.45;1.48;;;;;;;13.00;75.16;97286.56;7379683;19;19923;-74
2023/04/24 00:31:49;;;;;;;1.50;0.77;;;;;;;12.99;74.89;97292.91;7390103;19;19918;-75
2023/04/24 00:34:16;;;;;;;1.15;1.05;;;;;;;12.99;75.19;97294.75;7381549;19;19919;-75
2023/04/24 00:36:42;;;;;;;1.13;0.95;;;;;;;12.99;75.92;97300.03;7384216;19;20351;-75
2023/04/24 00:39:10;;;;;;;0.95;0.85;;;;;;;12.97;75.21;97302.88;7385298;19;19914;-74
2023/04/24 00:41:37;;;;;;;2.38;2.17;;;;;;;12.88;75.83;97302.25;7377759;19;20259;-74
2023/04/24 00:44:04;;;;;;;1.00;0.55;;;;;;;12.83;75.84;97301.19;7384625;19;19922;-73
2023/04/24 00:46:31;;;;;;;0.85;0.85;;;;;;;12.88;75.57;97296.13;7376769;19;19915;-74
2023/04/24 00:48:59;;;;;;;2.90;0.70;;;;;;;12.88;75.39;97290.81;7383772;19;19918;-74
2023/04/24 00:51:27;;;;;;;2.70;0.80;;;;;;;12.85;75.22;97289.38;7377172;19;19939;-75
2023/04/24 00:53:53;;;;;;;1.38;0.57;;;;;;;12.75;75.32;97288.91;7388100;19;20431;-74
2023/04/24 00:56:20;;;;;;;2.10;1.23;;;;;;;12.77;75.39;97283.38;7381164;19;20372;-74
2023/04/24 00:58:47;;;;;;;0.77;0.68;;;;;;;12.73;75.38;97277.66;7383743;19;20084;-74
2023/04/24 01:01:14;;;;;;;1.30;0.68;;;;;;;12.77;75.82;97278.91;7380133;19;19918;-74
2023/04/24 01:03:41;;;;;;;1.52;0.75;;;;;;;12.77;76.04;97276.25;7384481;19;19915;-74
2023/04/24 01:06:09;;;;;;;0.70;0.60;;;;;;;12.78;75.54;97277.06;7384172;19;20010;-74
2023/04/24 01:08:36;;;;;;;4.25;1.23;;;;;;;12.79;74.98;97276.03;7381486;19;19937;-73
2023/04/24 01:11:04;;;;;;;0.98;0.95;;;;;;;12.74;74.85;97272.16;7384316;19;19930;-73
2023/04/24 01:13:32;;;;;;;3.70;1.35;;;;;;;12.73;75.20;97267.84;7378802;19;19935;-74
2023/04/24 01:16:00;;;;;;;1.60;0.70;;;;;;;12.77;75.31;97273.59;7384936;19;19915;-75
2023/04/24 01:18:28;;;;;;;1.58;0.70;;;;;;;12.73;75.27;97267.84;7379133;19;19922;-75
2023/04/24 01:20:57;;;;;;;1.38;1.13;;;;;;;12.74;75.35;97269.50;7383600;19;19921;-75
2023/04/24 01:23:25;;;;;;;4.35;4.15;;;;;;;12.73;75.63;97275.00;7379769;19;20279;-73
2023/04/24 01:25:55;;;;;;;1.17;0.63;;;;;;;12.76;75.50;97264.00;7383707;19;19921;-74
2023/04/24 01:28:24;;;;;;;2.08;0.93;;;;;;;12.78;75.09;97267.28;7381503;19;19974;-74
2023/04/24 01:30:52;;;;;;;0.70;0.70;;;;;;;12.78;75.04;97254.00;7382093;19;19922;-74
2023/04/24 01:33:22;;;;;;;1.45;0.90;;;;;;;12.74;74.82;97253.59;7375948;19;19926;-73
2023/04/24 01:35:49;;;;;;;0.60;0.60;;;;;;;12.77;74.89;97255.03;7386163;19;19926;-73
2023/04/24 01:38:16;;;;;;;0.70;0.65;;;;;;;12.76;74.67;97257.88;7383475;19;20335;-74
2023/04/24 01:40:43;;;;;;;1.38;1.02;;;;;;;12.72;75.36;97252.97;7380689;19;19919;-74
2023/04/24 01:43:10;;;;;;;2.35;0.93;;;;;;;12.68;75.51;97251.69;7384617;19;19922;-74
2023/04/24 01:45:36;;;;;;;0.80;0.60;;;;;;;12.68;75.16;97240.28;7379395;19;20380;-74
2023/04/24 01:48:03;;;;;;;1.33;0.70;;;;;;;12.60;74.30;97237.78;7385301;19;19922;-74
2023/04/24 01:50:31;;;;;;;1.73;0.88;;;;;;;12.56;73.89;97241.84;7374740;19;19965;-74
2023/04/24 01:52:58;;;;;;;1.00;0.88;;;;;;;12.56;74.85;97234.72;7385527;19;19952;-74
2023/04/24 01:55:25;;;;;;;1.45;0.77;;;;;;;12.54;74.83;97239.38;7382641;19;19919;-73
2023/04/24 01:57:52;;;;;;;1.88;1.00;;;;;;;12.57;75.35;97235.53;7380930;19;19947;-74
2023/04/24 02:00:19;;;;;;;0.70;0.70;;;;;;;12.55;75.38;97234.91;7385122;19;19922;-74
2023/04/24 02:02:46;;;;;;;1.88;0.70;;;;;;;12.55;75.20;97240.22;7385596;19;19939;-74
2023/04/24 02:05:14;;;;;;;1.83;0.73;;;;;;;12.52;75.61;97244.88;7381682;19;20443;-74
2023/04/24 02:07:41;;;;;;;1.33;1.00;;;;;;;12.46;76.03;97248.31;7379922;19;19922;-74
2023/04/24 02:10:09;;;;;;;0.90;0.68;;;;;;;12.39;75.12;97250.13;7385563;19;19918;-75
2023/04/24 02:12:36;;;;;;;0.80;0.73;;;;;;;12.39;75.43;97242.16;7379628;19;19926;-74
2023/04/24 02:15:03;;;;;;;0.85;0.85;;;;;;;12.36;74.82;97241.72;7385824;19;19942;-75
2023/04/24 02:17:30;;;;;;;1.17;1.08;;;;;;;12.32;75.28;97241.28;7378254;19;19918;-75
2023/04/24 02:19:57;;;;;;;1.35;0.70;;;;;;;12.34;75.29;97243.75;7384018;19;19986;-75
2023/04/24 02:22:24;;;;;;;1.77;1.67;;;;;;;12.35;75.63;97248.88;7377821;19;20285;-74
2023/04/24 02:24:50;;;;;;;1.42;0.93;;;;;;;12.32;75.71;97245.78;7382999;19;19914;-74
2023/04/24 02:27:17;;;;;;;1.23;0.90;;;;;;;12.33;75.93;97247.44;7384751;19;19918;-75
2023/04/24 02:29:44;;;;;;;1.20;1.10;;;;;;;12.38;75.82;97243.19;7372699;19;19949;-74
2023/04/24 02:32:11;;;;;;;1.52;1.42;;;;;;;12.42;76.08;97241.75;7382327;19;19925;-75
2023/04/24 02:34:38;;;;;;;1.52;1.30;;;;;;;12.39;76.25;97238.69;7380495;19;20673;-75
2023/04/24 02:37:05;;;;;;;1.55;0.93;;;;;;;12.41;75.67;97244.63;7386069;19;19914;-74
2023/04/24 02:39:32;;;;;;;1.77;0.85;;;;;;;12.39;75.54;97249.28;7377041;19;19933;-75
2023/04/24 02:42:00;;;;;;;1.02;0.80;;;;;;;12.44;76.06;97245.03;7385610;19;19919;-75
2023/04/24 02:44:26;;;;;;;1.27;0.70;;;;;;;12.47;76.47;97259.75;7376816;19;19937;-75
2023/04/24 02:46:53;;;;;;;0.93;0.88;;;;;;;12.47;76.57;97257.91;7382698;19;19942;-75
2023/04/24 02:49:22;;;;;;;1.50;1.40;;;;;;;12.49;76.84;97265.69;7380096;19;19951;-75
2023/04/24 02:51:48;;;;;;;2.58;1.23;;;;;;;12.52;76.71;97265.28;7378052;19;19922;-74
2023/04/24 02:54:15;;;;;;;2.03;0.98;;;;;;;12.52;76.59;97262.63;7382529;19;19929;-74
2023/04/24 02:56:42;;;;;;;2.65;0.90;;;;;;;12.51;76.65;97268.97;7375767;19;19918;-74
2023/04/24 02:59:10;;;;;;;0.60;0.50;;;;;;;12.46;76.60;97264.25;7383195;19;19934;-74
2023/04/24 03:01:37;;;;;;;2.13;0.93;;;;;;;12.44;77.10;97262.78;7374483;19;19922;-74
2023/04/24 03:04:04;;;;;;;4.15;1.00;;;;;;;12.34;77.24;97252.53;7388448;19;19929;-74
2023/04/24 03:06:32;;;;;;;0.95;0.85;;;;;;;12.33;77.19;97245.59;7381017;19;19919;-74
2023/04/24 03:08:59;;;;;;;1.30;0.82;;;;;;;12.28;77.12;97238.22;7389804;19;19919;-74
2023/04/24 03:11:26;;;;;;;2.65;1.30;;;;;;;12.30;76.91;97233.53;7385528;19;19919;-73
2023/04/24 03:13:53;;;;;;;1.02;0.93;;;;;;;12.24;77.37;97238.78;7389257;19;19922;-74
2023/04/24 03:16:19;;;;;;;2.05;1.13;;;;;;;12.19;77.41;97234.09;7389303;19;19918;-74
2023/04/24 03:18:46;;;;;;;2.97;1.17;;;;;;;12.14;77.84;97243.59;7385350;19;19934;-74
2023/04/24 03:21:14;;;;;;;1.63;1.35;;;;;;;12.20;77.69;97232.25;7384183;19;20640;-75
2023/04/24 03:23:41;;;;;;;1.45;0.90;;;;;;;12.18;78.10;97235.09;7386244;19;19918;-74
2023/04/24 03:26:09;;;;;;;1.17;0.90;;;;;;;12.19;77.76;97235.91;7385744;19;19956;-74
2023/04/24 03:28:42;;;;;;;1.58;1.23;;;;;;;12.13;77.81;97241.97;7381440;19;20343;-74
2023/04/24 03:31:09;;;;;;;1.08;0.93;;;;;;;12.09;77.70;97233.59;7385910;19;19927;-74
2023/04/24 03:33:36;;;;;;;2.97;1.35;;;;;;;12.05;77.60;97233.16;7383095;19;19918;-74
2023/04/24 03:36:04;;;;;;;1.38;1.27;;;;;;;11.95;77.57;97237.16;7390453;19;19926;-74
2023/04/24 03:38:38;;;;;;;1.30;1.05;;;;;;;11.97;77.79;97240.44;7382324;19;19918;-74
2023/04/24 03:41:27;;;;;;;3.50;1.63;;;;;;;11.98;77.90;97244.72;7383911;19;19914;-74
2023/04/24 03:44:01;;;;;;;0.90;0.77;;;;;;;11.94;77.99;97238.19;7387177;19;19922;-74
2023/04/24 03:46:27;;;;;;;2.78;0.82;;;;;;;11.94;77.81;97233.69;7381170;19;19958;-74
2023/04/24 03:48:57;;;;;;;0.93;0.77;;;;;;;11.89;78.02;97230.78;7387472;19;20344;-74
2023/04/24 03:51:30;;;;;;;1.70;1.60;;;;;;;11.89;77.56;97225.50;7380905;19;20314;-74
2023/04/24 03:54:05;;;;;;;1.45;1.08;;;;;;;11.90;77.50;97231.59;7388070;19;19924;-74
2023/04/24 03:56:34;;;;;;;1.80;0.93;;;;;;;11.85;77.53;97235.63;7381563;19;19914;-74
2023/04/24 03:59:02;;;;;;;1.95;1.85;;;;;;;11.84;77.48;97233.16;7386053;19;20264;-74
2023/04/24 04:01:30;;;;;;;2.20;2.10;;;;;;;11.83;77.48;97235.00;7376628;19;20248;-74
2023/04/24 04:04:06;;;;;;;0.90;0.88;;;;;;;11.80;77.59;97235.38;7384721;19;19950;-74
2023/04/24 04:06:36;;;;;;;1.25;0.68;;;;;;;11.81;77.42;97238.84;7380700;19;19906;-74
2023/04/24 04:09:03;;;;;;;0.90;0.80;;;;;;;11.78;78.05;97241.88;7386190;19;19921;-74
2023/04/24 04:11:31;;;;;;;1.48;0.90;;;;;;;11.77;77.98;97253.47;7382757;19;19953;-73
2023/04/24 04:13:58;;;;;;;2.13;1.40;;;;;;;11.78;78.02;97253.31;7387028;19;19926;-74
2023/04/24 04:16:25;;;;;;;2.33;2.13;;;;;;;11.82;78.23;97246.63;7387009;19;20455;-74
2023/04/24 04:18:57;;;;;;;2.22;0.90;;;;;;;11.84;78.41;97249.06;7381394;19;19915;-74
2023/04/24 04:21:24;;;;;;;1.05;0.75;;;;;;;11.90;78.30;97255.47;7382256;19;19927;-74
2023/04/24 04:23:56;;;;;;;1.17;0.82;;;;;;;11.93;78.57;97260.38;7378746;19;20650;-74
2023/04/24 04:26:32;;;;;;;0.73;0.73;;;;;;;11.93;78.21;97266.53;7385349;19;19918;-73
2023/04/24 04:29:07;;;;;;;1.38;0.80;;;;;;;11.95;78.07;97276.91;7385644;19;19970;-74
2023/04/24 04:31:38;;;;;;;1.80;1.42;;;;;;;11.85;78.71;97291.28;7382791;19;20595;-75
2023/04/24 04:34:09;;;;;;;2.45;0.75;;;;;;;11.56;79.83;97302.03;7388684;19;19922;-74
2023/04/24 04:36:39;;;;;;;1.63;1.05;;;;;;;11.15;80.34;97313.97;7365537;19;19922;-74
2023/04/24 04:39:28;;;;;;;0.70;0.65;;;;;;;10.88;81.75;97331.34;7393418;19;19927;-74
2023/04/24 04:42:00;;;;;;;5.50;1.10;;;;;;;11.10;81.50;97331.41;7390694;19;20002;-74
2023/04/24 04:44:35;;;;;;;1.27;1.15;;;;;;;11.36;81.04;97331.75;7381862;19;19918;-74
2023/04/24 04:47:07;;;;;;;1.85;1.55;;;;;;;11.27;80.68;97340.81;7384500;19;19918;-75
2023/04/24 04:49:35;;;;;;;1.38;1.27;;;;;;;11.23;80.38;97344.81;7383378;19;19925;-74
2023/04/24 04:52:04;;;;;;;1.63;1.52;;;;;;;11.33;80.15;97348.00;7383510;19;19919;-74
2023/04/24 04:54:31;;;;;;;1.88;1.42;;;;;;;11.45;80.54;97352.81;7380795;19;19948;-74
2023/04/24 04:56:58;;;;;;;2.50;1.30;;;;;;;11.39;80.02;97355.19;7381411;19;19926;-74
2023/04/24 04:59:25;;;;;;;2.67;1.25;;;;;;;11.52;79.98;97351.06;7382978;19;19944;-74
2023/04/24 05:01:59;;;;;;;1.67;1.25;;;;;;;11.57;79.72;97354.78;7382978;19;20011;-75
2023/04/24 05:04:26;;;;;;;1.25;1.10;;;;;;;11.47;79.30;97358.75;7385582;19;19930;-75
2023/04/24 05:06:53;;;;;;;1.38;1.27;;;;;;;11.46;79.82;97362.41;7380583;19;20355;-74
2023/04/24 05:09:22;;;;;;;1.52;1.35;;;;;;;11.43;79.86;97371.56;7381125;19;19922;-75
2023/04/24 05:11:53;;;;;;;1.70;1.60;;;;;;;11.17;79.54;97374.69;7378300;19;19990;-75
2023/04/24 05:14:22;;;;;;;1.17;1.08;;;;;;;11.20;79.27;97382.25;7386779;19;19931;-75
2023/04/24 05:16:49;;;;;;;1.70;1.60;;;;;;;11.17;79.35;97387.94;7381682;19;20005;-75
2023/04/24 05:19:19;;;;;;;1.92;1.52;;;;;;;11.21;79.10;97397.13;7383819;19;20000;-75
2023/04/24 05:21:46;;;;;;;1.73;1.17;;;;;;;11.20;79.34;97396.31;7383126;19;19938;-75
2023/04/24 05:24:13;;;;;;;1.88;1.35;;;;;;;11.08;78.73;97399.59;7382802;19;19952;-75
2023/04/24 05:26:43;;;;;;;2.47;2.25;;;;;;;10.97;78.18;97396.41;7382804;19;19914;-75
2023/04/24 05:29:11;;;;;;;1.70;1.50;;;;;;;11.16;78.45;97416.22;7381040;19;19930;-75
2023/04/24 05:31:38;;;;;;;1.45;1.30;;;;;;;11.15;77.45;97413.75;7381845;19;19922;-74
2023/04/24 05:34:05;;;;;;;2.05;1.80;;;;;;;11.07;77.64;97414.66;7387473;19;22549;-75
2023/04/24 05:36:33;;;;;;;3.10;2.15;;;;;;;11.18;77.70;97414.19;7382751;19;19918;-75
2023/04/24 05:38:59;;;;;;;2.03;1.33;;;;;;;11.04;77.36;97416.88;7383083;19;19914;-73
2023/04/24 05:41:26;;;;;;;1.60;1.38;;;;;;;11.27;77.61;97417.59;7378957;19;19922;-76
2023/04/24 05:43:53;;;;;;;2.35;1.73;;;;;;;11.28;77.56;97424.53;7378680;19;19922;-75
2023/04/24 05:46:20;;;;;;;2.15;1.80;;;;;;;11.29;77.85;97420.84;7382592;19;20592;-76
2023/04/24 05:48:47;;;;;;;2.03;1.83;;;;;;;11.24;77.57;97431.16;7378426;19;19918;-73
2023/04/24 05:51:14;;;;;;;5.10;2.40;;;;;;;11.29;77.15;97435.94;7381911;19;19914;-73
2023/04/24 05:53:41;;;;;;;2.00;1.35;;;;;;;11.15;76.72;97432.28;7379112;19;19919;-74
2023/04/24 05:56:08;;;;;;;2.03;1.92;;;;;;;11.01;76.47;97441.88;7387971;19;20340;-73
2023/04/24 05:58:37;;;;;;;3.42;2.22;;;;;;;11.18;76.65;97450.44;7382112;19;19918;-73
2023/04/24 06:01:04;;;;;;;1.65;1.55;;;;;;;11.26;76.85;97445.06;7377065;19;19926;-75
2023/04/24 06:03:31;;;;;;;2.95;1.58;;;;;;;11.37;76.63;97460.50;7382689;19;20339;-75
2023/04/24 06:05:58;;;;;;;1.45;1.35;;;;;;;11.43;76.83;97458.94;7377435;19;19918;-76
2023/04/24 06:08:25;;;;;;;2.80;1.70;;;;;;;11.54;76.52;97461.13;7384082;19;19918;-74
2023/04/24 06:10:52;;;;;;;2.22;1.50;;;;;;;11.52;76.01;97464.97;7375493;19;19922;-74
2023/04/24 06:13:20;;;;;;;4.05;2.67;;;;;;;11.62;76.31;97465.50;7384151;19;20463;-74
2023/04/24 06:16:06;;;;;;;2.38;1.40;;;;;;;11.68;76.06;97461.28;7384779;19;19922;-74
2023/04/24 06:18:36;;;;;;;;;;;;;;;11.66;76.35;97461.47;7384336;19;19943;-74
2023/04/24 06:21:03;;;;;;;1.92;1.50;;;;;;;11.65;76.19;97462.47;7378497;19;19911;-73
2023/04/24 06:23:32;;;;;;;3.03;1.95;;;;;;;11.61;76.27;97461.19;7383909;19;19923;-74
2023/04/24 06:25:59;;;;;;;2.60;2.40;;;;;;;11.54;76.43;97465.59;7371812;19;19923;-73
2023/04/24 06:28:26;;;;;;;2.53;1.55;;;;;;;11.57;76.45;97452.81;7382459;19;19926;-74
2023/04/24 06:30:52;;;;;;;3.15;1.95;;;;;;;11.63;76.44;97454.72;7378107;19;19914;-73
2023/04/24 06:33:20;;;;;;;2.15;1.63;;;;;;;11.74;76.72;97456.09;7382627;19;20347;-73
2023/04/24 06:35:49;;;;;;;2.15;1.70;;;;;;;11.94;77.05;97452.88;7380113;19;19923;-76
2023/04/24 06:38:15;;;;;;;2.30;2.10;;;;;;;11.98;76.07;97446.16;7382575;19;19926;-74
2023/04/24 06:40:43;;;;;;;2.63;1.95;;;;;;;11.95;73.74;97451.84;7380751;19;19949;-74
2023/04/24 06:43:10;;;;;;;2.15;1.85;;;;;;;12.13;74.17;97448.78;7388131;19;19918;-74
2023/04/24 06:45:38;;;;;;;2.30;1.95;;;;;;;12.26;74.37;97439.13;7388135;19;19918;-73
2023/04/24 06:48:06;;;;;;;1.83;1.65;;;;;;;12.27;72.98;97443.44;7380933;19;19934;-74
2023/04/24 06:50:32;;;;;;;2.10;1.58;;;;;;;12.39;73.55;97446.38;7381225;19;19922;-74
2023/04/24 06:52:59;;;;;;;2.28;1.85;;;;;;;12.37;72.24;97451.06;7386622;19;20396;-75
2023/04/24 06:55:26;;;;;;;2.85;2.05;;;;;;;12.29;70.75;97449.34;7388084;19;19919;-73
2023/04/24 06:57:53;;;;;;;2.95;2.20;;;;;;;12.14;71.48;97445.97;7382208;19;20319;-75
2023/04/24 07:00:19;;;;;;;2.60;2.00;;;;;;;12.06;72.60;97460.16;7385714;19;19927;-74
2023/04/24 07:02:46;;;;;;;2.08;1.98;;;;;;;12.11;73.07;97448.97;7386140;19;19927;-74
2023/04/24 07:05:15;;;;;;;3.22;2.47;;;;;;;12.14;72.37;97445.97;7387594;19;20022;-75
2023/04/24 07:07:43;;;;;;;2.42;1.95;;;;;;;12.24;72.66;97445.63;7385479;19;20374;-76
2023/04/24 07:10:09;;;;;;;3.00;2.25;;;;;;;12.18;71.43;97449.84;7388241;19;19934;-75
2023/04/24 07:12:37;;;;;;;2.53;1.75;;;;;;;12.32;71.44;97452.63;7390225;19;19911;-75
2023/04/24 07:15:05;;;;;;;2.58;1.90;;;;;;;12.45;71.26;97453.59;7384553;19;20337;-77
2023/04/24 07:17:32;;;;;;;1.90;1.60;;;;;;;12.62;71.17;97448.84;7387619;19;19922;-76
2023/04/24 07:19:59;;;;;;;2.60;2.15;;;;;;;12.73;72.09;97456.28;7380225;19;19925;-75
2023/04/24 07:22:26;;;;;;;3.10;1.70;;;;;;;12.84;71.45;97446.16;7387497;19;19974;-76
2023/04/24 07:24:52;;;;;;;3.90;1.27;;;;;;;12.74;69.67;97457.94;7385056;19;19919;-77
2023/04/24 07:27:20;;;;;;;1.95;1.77;;;;;;;12.66;70.59;97452.75;7387974;19;20778;-76
2023/04/24 07:29:47;;;;;;;6.45;2.08;;;;;;;12.45;67.51;97456.25;7385750;19;20333;-77
2023/04/24 07:32:13;;;;;;;2.08;1.55;;;;;;;12.23;67.96;97467.84;7388021;19;19926;-75
2023/04/24 07:34:40;;;;;;;3.63;1.92;;;;;;;12.18;68.74;97472.91;7388383;19;19919;-76
2023/04/24 07:37:07;;;;;;;2.70;2.50;;;;;;;12.00;67.54;97475.97;7386685;19;20244;-77
2023/04/24 07:39:34;;;;;;;2.17;1.77;;;;;;;11.90;68.38;97478.09;7385298;19;19925;-76
2023/04/24 07:42:01;;;;;;;1.58;1.48;;;;;;;11.96;67.44;97487.97;7380289;19;19922;-76
2023/04/24 07:44:28;;;;;;;2.30;2.08;;;;;;;12.00;65.54;97487.38;7390008;19;19918;-78
2023/04/24 07:46:55;;;;;;;3.33;1.73;;;;;;;12.15;65.76;97483.88;7387675;19;19915;-76
2023/04/24 07:49:23;;;;;;;2.35;1.33;;;;;;;12.26;64.64;97475.44;7393019;19;19907;-77
2023/04/24 07:51:50;;;;;;;2.88;1.48;;;;;;;12.34;64.66;97490.41;7385831;19;19925;-76
2023/04/24 07:54:17;;;;;;;2.00;1.52;;;;;;;12.51;66.09;97494.47;7392464;19;19926;-78
2023/04/24 07:56:44;;;;;;;2.67;1.35;;;;;;;12.60;65.72;97501.28;7393054;19;19922;-75
2023/04/24 07:59:11;;;;;;;3.00;1.23;;;;;;;12.58;65.98;97503.28;7389432;19;20344;-77
2023/04/24 08:01:38;;;;;;;2.25;1.27;;;;;;;12.74;65.36;97499.56;7395907;19;19926;-78
2023/04/24 08:04:04;;;;;;;1.10;1.00;;;;;;;12.65;63.65;97520.09;7392823;19;19926;-76
2023/04/24 08:06:32;;;;;;;1.52;1.42;;;;;;;12.57;63.41;97516.75;7395504;19;20347;-77
2023/04/24 08:08:59;;;;;;;2.10;1.40;;;;;;;12.54;63.16;97515.31;7387447;19;19952;-78
2023/04/24 08:11:27;;;;;;;3.58;1.42;;;;;;;12.68;62.00;97514.41;7388131;19;20363;-77
2023/04/24 08:13:54;;;;;;;1.58;1.13;;;;;;;12.89;62.14;97518.06;7390249;19;19919;-76
2023/04/24 08:16:23;;;;;;;1.58;1.30;;;;;;;12.73;61.15;97504.06;7388156;19;20319;-76
2023/04/24 08:18:51;;;;;;;1.80;0.90;;;;;;;12.92;60.19;97520.34;7387648;19;19943;-77
2023/04/24 08:21:18;;;;;;;1.98;1.35;;;;;;;12.88;63.56;97519.91;7387729;19;19939;-75
2023/04/24 08:23:45;;;;;;;1.65;1.08;;;;;;;12.73;60.67;97514.66;7395122;19;19951;-77
2023/04/24 08:26:13;;;;;;;1.65;1.40;;;;;;;12.89;62.75;97534.81;7394172;19;19915;-78
2023/04/24 08:28:39;;;;;;;1.45;1.33;;;;;;;12.59;63.27;97534.13;7391783;19;19943;-77
2023/04/24 08:31:06;;;;;;;1.73;1.33;;;;;;;12.37;60.49;97535.13;7383101;19;20788;-75
2023/04/24 08:33:36;;;;;;;3.05;1.80;;;;;;;12.50;62.84;97553.81;7394599;19;19940;-77
2023/04/24 08:36:05;;;;;;;2.17;2.08;;;;;;;12.40;63.17;97540.03;7391400;19;20495;-76
2023/04/24 08:38:31;;;;;;;1.55;1.45;;;;;;;12.14;61.55;97551.16;7394869;19;19950;-76
2023/04/24 08:41:00;;;;;;;1.83;1.73;;;;;;;12.17;59.77;97548.97;7389353;19;19919;-76
2023/04/24 08:43:27;;;;;;;2.05;1.48;;;;;;;12.28;62.29;97539.72;7393473;19;20356;-76
2023/04/24 08:45:56;;;;;;;1.80;1.50;;;;;;;12.26;61.78;97555.00;7389887;19;19911;-76
2023/04/24 08:48:23;;;;;;;2.28;1.60;;;;;;;12.41;59.49;97558.44;7387981;19;19930;-77
2023/04/24 08:50:57;;;;;;;2.45;1.20;;;;;;;12.21;59.47;97562.69;7386663;19;19919;-76
2023/04/24 08:53:25;;;;;;;2.40;1.60;;;;;;;12.26;59.69;97561.13;7394064;19;19919;-77
2023/04/24 08:55:54;;;;;;;1.50;1.40;;;;;;;12.07;59.43;97564.34;7389391;19;19918;-75
2023/04/24 08:58:22;;;;;;;1.98;1.75;;;;;;;12.22;59.93;97551.91;7394755;19;19918;-75
2023/04/24 09:00:49;;;;;;;1.20;1.08;;;;;;;11.92;58.33;97561.72;7386248;19;19939;-76
2023/04/24 09:03:16;;;;;;;2.90;1.67;;;;;;;12.07;60.34;97567.81;7385205;19;19922;-76
2023/04/24 09:05:46;;;;;;;2.20;1.27;;;;;;;12.06;57.36;97575.97;7392556;19;19943;-75
2023/04/24 09:08:14;;;;;;;2.10;1.52;;;;;;;12.16;59.12;97562.41;7388567;19;19926;-78
2023/04/24 09:10:41;;;;;;;1.55;1.45;;;;;;;12.35;59.73;97569.81;7391466;19;19919;-75
2023/04/24 09:13:09;;;;;;;2.08;1.20;;;;;;;12.47;60.00;97570.13;7387556;19;19926;-74
2023/04/24 09:15:37;;;;;;;2.50;1.00;;;;;;;12.41;57.31;97576.19;7391850;19;19926;-75
2023/04/24 09:18:05;;;;;;;2.67;1.15;;;;;;;12.33;58.80;97571.81;7383895;19;20034;-75
2023/04/24 09:20:32;;;;;;;3.22;1.63;;;;;;;12.28;57.64;97575.00;7392168;19;19970;-76
2023/04/24 09:22:59;;;;;;;1.65;1.15;;;;;;;12.37;57.94;97577.56;7387881;19;20542;-75
2023/04/24 09:25:35;;;;;;;1.35;1.23;;;;;;;12.17;58.26;97583.47;7390910;19;19914;-76
2023/04/24 09:28:04;;;;;;;1.23;1.13;;;;;;;12.44;59.94;97589.06;7383735;19;19918;-75
2023/04/24 09:30:31;;;;;;;1.20;0.98;;;;;;;12.04;59.31;97593.91;7391913;19;19929;-76
2023/04/24 09:33:17;;;;;;;2.00;1.52;;;;;;;11.92;61.32;97600.66;7387450;19;19926;-74
2023/04/24 09:35:52;;;;;;;1.45;1.00;;;;;;;11.76;61.43;97607.75;7392482;19;19918;-77
2023/04/24 09:38:20;;;;;;;1.90;1.13;;;;;;;11.76;64.40;97607.75;7387170;19;19939;-76
2023/04/24 09:40:46;;;;;;;1.77;1.67;;;;;;;11.70;65.01;97612.97;7391169;19;19918;-75
2023/04/24 09:43:13;;;;;;;1.38;1.27;;;;;;;11.67;63.93;97619.44;7385580;19;20396;-76
2023/04/24 09:45:40;;;;;;;1.77;1.35;;;;;;;11.57;62.38;97610.94;7392609;19;19947;-75
2023/04/24 09:48:10;;;;;;;1.48;1.38;;;;;;;11.91;62.53;97609.63;7384656;19;19995;-76
2023/04/24 09:50:37;;;;;;;1.40;1.10;;;;;;;12.13;61.76;97618.47;7383725;19;19947;-77
2023/04/24 09:53:08;;;;;;;1.70;1.25;;;;;;;12.30;62.33;97622.59;7387524;19;19914;-75
2023/04/24 09:55:40;;;;;;;3.20;3.00;;;;;;;12.48;63.49;97612.41;7386716;19;19915;-75
2023/04/24 09:58:08;;;;;;;5.05;1.95;;;;;;;12.91;62.72;97614.28;7385955;19;19919;-76
2023/04/24 10:00:34;;;;;;;1.67;1.10;;;;;;;13.26;60.49;97615.25;7385638;19;19934;-75
2023/04/24 10:03:05;;;;;;;3.75;3.45;;;;;;;13.44;59.97;97614.78;7389984;19;20276;-76
2023/04/24 10:05:34;;;;;;;4.53;1.23;;;;;;;13.22;58.32;97615.78;7391984;19;19918;-74
2023/04/24 10:08:05;;;;;;;2.35;1.02;;;;;;;13.18;58.45;97629.44;7383275;19;19926;-74
2023/04/24 10:10:35;;;;;;;2.13;0.95;;;;;;;13.26;58.87;97625.00;7382882;19;19910;-74
2023/04/24 10:13:02;;;;;;;1.10;1.00;;;;;;;13.62;58.20;97627.59;7384979;19;19925;-76
2023/04/24 10:15:31;;;;;;;2.05;0.85;;;;;;;13.47;55.15;97626.84;7385116;19;19933;-75
2023/04/24 10:17:59;;;;;;;1.40;1.23;;;;;;;13.61;54.77;97633.91;7391200;19;19939;-76
2023/04/24 10:20:29;;;;;;;1.13;0.93;;;;;;;13.91;57.53;97629.22;7382537;19;19915;-75
2023/04/24 10:22:57;;;;;;;2.47;1.10;;;;;;;14.15;56.43;97625.25;7387003;19;20376;-76
2023/04/24 10:25:27;;;;;;;1.00;0.80;;;;;;;14.49;54.27;97624.41;7390351;19;19915;-75
2023/04/24 10:27:59;;;;;;;2.05;0.73;;;;;;;14.67;51.54;97620.41;7387362;19;19919;-75
2023/04/24 10:30:28;;;;;;;1.42;1.02;;;;;;;14.41;51.81;97635.22;7387308;19;19939;-77
2023/04/24 10:32:56;;;;;;;1.25;0.85;;;;;;;13.97;50.71;97636.41;7391014;19;19922;-76
2023/04/24 10:35:26;;;;;;;1.30;0.82;;;;;;;13.47;51.70;97638.31;7384548;19;20339;-76
2023/04/24 10:38:05;;;;;;;2.50;2.30;;;;;;;13.23;52.56;97638.69;7390801;19;20251;-75
2023/04/24 10:40:34;;;;;;;1.10;1.00;;;;;;;12.89;52.81;97635.69;7385537;19;19919;-74
2023/04/24 10:43:10;;;;;;;1.73;0.90;;;;;;;12.63;52.98;97638.06;7380744;19;19927;-75
2023/04/24 10:45:37;;;;;;;;;;;;;;;12.46;50.81;97651.56;7395568;19;19911;-75
2023/04/24 10:48:10;;;;;;;1.30;1.02;;;;;;;12.53;54.42;97656.91;7381739;19;19930;-74
2023/04/24 10:50:46;;;;;;;1.13;1.02;;;;;;;12.28;53.71;97654.59;7386463;19;19939;-75
2023/04/24 10:53:18;;;;;;;1.35;1.23;;;;;;;12.33;54.51;97662.00;7382615;19;19939;-75
2023/04/24 10:55:51;;;;;;;2.03;1.27;;;;;;;12.23;54.85;97669.41;7389414;19;20261;-75
2023/04/24 10:58:22;;;;;;;1.23;1.13;;;;;;;12.17;53.12;97664.84;7380877;19;19914;-76
2023/04/24 11:00:59;;;;;;;3.22;1.10;;;;;;;12.14;52.71;97667.84;7383272;19;20287;-76
2023/04/24 11:03:28;;;;;;;1.50;1.20;;;;;;;12.25;53.53;97664.75;7384910;19;19915;-76
2023/04/24 11:05:59;;;;;;;2.03;0.98;;;;;;;12.68;53.00;97660.38;7387012;19;19915;-76
2023/04/24 11:08:36;;;;;;;2.13;1.65;;;;;;;12.51;53.34;97670.38;7381258;19;19944;-75
2023/04/24 11:11:15;;;;;;;2.15;1.95;;;;;;;12.62;50.97;97677.06;7381709;19;20252;-76
2023/04/24 11:13:54;;;;;;;1.45;1.00;;;;;;;13.03;53.11;97673.00;7388068;19;19931;-77
2023/04/24 11:16:44;;;;;;;1.58;1.30;;;;;;;13.11;51.02;97681.69;7378239;19;19986;-76
2023/04/24 11:19:14;;;;;;;2.78;1.08;;;;;;;13.31;53.65;97686.41;7380588;19;20343;-76
2023/04/24 11:21:42;;;;;;;1.63;1.00;;;;;;;13.04;51.71;97678.13;7388787;19;19914;-75
2023/04/24 11:24:31;;;;;;;1.77;1.00;;;;;;;13.26;51.60;97681.66;7385935;19;19940;-76
2023/04/24 11:27:05;;;;;;;2.05;1.13;;;;;;;12.96;52.24;97686.22;7397735;19;19926;-75
2023/04/24 11:30:01;;;;;;;2.35;1.15;;;;;;;13.25;51.59;97687.13;7391890;19;19910;-74
2023/04/24 11:32:29;;;;;;;1.50;1.40;;;;;;;13.49;52.48;97684.13;7390206;19;19926;-75
2023/04/24 11:35:01;;;;;;;2.25;1.45;;;;;;;13.77;50.81;97688.63;7391343;19;19918;-75
2023/04/24 11:37:49;;;;;;;1.42;1.17;;;;;;;13.82;50.12;97689.72;7388729;19;19914;-77
2023/04/24 11:40:20;;;;;;;1.58;1.30;;;;;;;13.68;49.42;97690.59;7385581;19;19918;-77
2023/04/24 11:42:47;;;;;;;1.58;1.45;;;;;;;13.87;49.80;97701.59;7394682;19;19994;-76